createdAt,value
2023-04-02T00:01:39.194Z,4.90
2023-04-02T00:04:16.834Z,4.90
2023-04-02T00:06:46.527Z,4.90
2023-04-02T00:09:33.359Z,4.80
2023-04-02T00:12:17.377Z,4.80
2023-04-02T00:14:53.560Z,4.80
2023-04-02T00:17:22.923Z,4.80
2023-04-02T00:19:54.762Z,4.90
2023-04-02T00:22:26.782Z,4.90
2023-04-02T00:24:56.216Z,4.90
2023-04-02T00:27:23.811Z,4.90
2023-04-02T00:29:54.848Z,4.80
2023-04-02T00:32:25.514Z,4.80
2023-04-02T00:34:53.299Z,4.80
2023-04-02T00:37:28.187Z,4.70
2023-04-02T00:40:00.693Z,4.70
2023-04-02T00:42:30.860Z,4.60
2023-04-02T00:45:01.811Z,4.60
2023-04-02T00:47:35.594Z,4.70
2023-04-02T00:50:07.789Z,4.70
2023-04-02T00:52:36.279Z,4.60
2023-04-02T00:55:08.032Z,4.60
2023-04-02T00:57:35.397Z,4.60
2023-04-02T01:00:19.168Z,4.60
2023-04-02T01:03:20.010Z,4.60
2023-04-02T01:05:50.234Z,4.50
2023-04-02T01:08:27.683Z,4.50
2023-04-02T01:11:02.263Z,4.60
2023-04-02T01:13:34.009Z,4.70
2023-04-02T01:16:08.376Z,4.60
2023-04-02T01:18:50.609Z,4.50
2023-04-02T01:21:46.178Z,4.60
2023-04-02T01:24:14.446Z,4.50
2023-04-02T01:26:49.350Z,4.40
2023-04-02T01:29:20.337Z,4.40
2023-04-02T01:31:49.133Z,4.40
2023-04-02T01:34:20.094Z,4.30
2023-04-02T01:37:01.191Z,4.30
2023-04-02T01:39:40.246Z,4.20
2023-04-02T01:42:15.956Z,4.20
2023-04-02T01:44:48.645Z,4.30
2023-04-02T01:47:17.444Z,4.30
2023-04-02T01:49:45.423Z,4.20
2023-04-02T01:52:16.065Z,4.30
2023-04-02T01:54:43.420Z,4.30
2023-04-02T01:57:10.850Z,4.30
2023-04-02T01:59:38.305Z,4.30
2023-04-02T02:02:11.125Z,4.20
2023-04-02T02:04:39.598Z,4.20
2023-04-02T02:07:14.280Z,4.20
2023-04-02T02:09:42.743Z,4.20
2023-04-02T02:12:13.544Z,4.30
2023-04-02T02:14:45.630Z,4.30
2023-04-02T02:17:16.605Z,4.20
2023-04-02T02:19:47.645Z,4.20
2023-04-02T02:22:29.454Z,4.20
2023-04-02T02:24:57.781Z,4.20
2023-04-02T02:27:47.955Z,4.20
2023-04-02T02:30:18.382Z,4.20
2023-04-02T02:32:55.928Z,4.20
2023-04-02T02:35:27.497Z,4.20
2023-04-02T02:38:01.378Z,4.20
2023-04-02T02:40:35.176Z,4.30
2023-04-02T02:43:06.267Z,4.20
2023-04-02T02:45:38.056Z,4.30
2023-04-02T02:48:12.856Z,4.30
2023-04-02T02:50:41.559Z,4.30
2023-04-02T02:53:17.502Z,4.30
2023-04-02T02:55:45.118Z,4.20
2023-04-02T02:58:15.709Z,4.20
2023-04-02T03:00:43.262Z,4.20
2023-04-02T03:03:15.142Z,4.30
2023-04-02T03:05:42.433Z,4.30
2023-04-02T03:08:18.911Z,4.30
2023-04-02T03:10:53.277Z,4.20
2023-04-02T03:13:26.235Z,4.20
2023-04-02T03:16:00.081Z,4.20
2023-04-02T03:18:39.091Z,4.20
2023-04-02T03:21:14.978Z,4.00
2023-04-02T03:23:45.731Z,4.00
2023-04-02T03:26:18.300Z,4.10
2023-04-02T03:28:50.166Z,4.10
2023-04-02T03:31:24.369Z,4.20
2023-04-02T03:33:57.802Z,4.20
2023-04-02T03:36:30.678Z,4.20
2023-04-02T03:39:05.919Z,4.20
2023-04-02T03:41:38.152Z,4.10
2023-04-02T03:44:15.800Z,4.10
2023-04-02T03:46:47.697Z,4.10
2023-04-02T03:49:23.761Z,4.10
2023-04-02T03:51:55.759Z,4.10
2023-04-02T03:54:22.900Z,4.10
2023-04-02T03:56:51.917Z,4.20
2023-04-02T03:59:26.794Z,4.20
2023-04-02T04:01:59.332Z,4.20
2023-04-02T04:04:30.346Z,4.20
2023-04-02T04:07:00.181Z,4.20
2023-04-02T04:09:31.685Z,4.10
2023-04-02T04:12:09.960Z,4.10
2023-04-02T04:14:40.668Z,4.20
2023-04-02T04:17:15.592Z,4.10
2023-04-02T04:19:47.557Z,4.20
2023-04-02T04:22:19.250Z,4.20
2023-04-02T04:24:47.595Z,4.20
2023-04-02T04:27:23.868Z,4.10
2023-04-02T04:29:57.808Z,4.20
2023-04-02T04:32:32.345Z,4.10
2023-04-02T04:35:06.113Z,4.20
2023-04-02T04:37:37.233Z,4.30
2023-04-02T04:40:11.407Z,4.30
2023-04-02T04:42:41.610Z,4.30
2023-04-02T04:45:20.084Z,4.20
2023-04-02T04:47:52.482Z,4.20
2023-04-02T04:50:32.143Z,4.30
2023-04-02T04:53:05.935Z,4.30
2023-04-02T04:55:38.585Z,4.30
2023-04-02T04:58:19.079Z,4.30
2023-04-02T05:00:55.265Z,4.30
2023-04-02T05:03:31.185Z,4.30
2023-04-02T05:06:09.176Z,4.30
2023-04-02T05:08:40.036Z,4.30
2023-04-02T05:11:12.923Z,4.30
2023-04-02T05:13:47.573Z,4.30
2023-04-02T05:16:23.059Z,4.30
2023-04-02T05:18:56.993Z,4.40
2023-04-02T05:21:32.329Z,4.40
2023-04-02T05:24:05.700Z,4.40
2023-04-02T05:26:40.319Z,4.40
2023-04-02T05:29:13.141Z,4.40
2023-04-02T05:31:45.136Z,4.40
2023-04-02T05:34:13.178Z,4.50
2023-04-02T05:36:46.435Z,4.50
2023-04-02T05:39:22.040Z,4.50
2023-04-02T05:41:57.329Z,4.60
2023-04-02T05:44:29.240Z,4.60
2023-04-02T05:47:00.082Z,4.60
2023-04-02T05:49:33.070Z,4.60
2023-04-02T05:52:05.094Z,4.60
2023-04-02T05:54:38.128Z,4.60
2023-04-02T05:57:09.662Z,4.50
2023-04-02T05:59:40.758Z,4.50
2023-04-02T06:02:20.712Z,4.60
2023-04-02T06:04:53.792Z,4.70
2023-04-02T06:07:24.235Z,4.60
2023-04-02T06:09:55.346Z,4.60
2023-04-02T06:12:32.427Z,4.60
2023-04-02T06:14:59.383Z,4.50
2023-04-02T06:17:27.630Z,4.50
2023-04-02T06:19:56.589Z,4.50
2023-04-02T06:22:33.069Z,4.60
2023-04-02T06:25:05.300Z,4.60
2023-04-02T06:27:34.465Z,4.60
2023-04-02T06:30:05.772Z,4.60
2023-04-02T06:32:33.239Z,4.50
2023-04-02T06:35:00.283Z,4.60
2023-04-02T06:37:33.189Z,4.50
2023-04-02T06:40:02.543Z,4.50
2023-04-02T06:45:24.459Z,4.60
2023-04-02T06:47:55.947Z,4.60
2023-04-02T06:50:26.922Z,4.60
2023-04-02T06:52:58.684Z,4.60
2023-04-02T06:55:35.075Z,4.80
2023-04-02T06:58:02.617Z,4.70
2023-04-02T07:00:35.786Z,4.70
2023-04-02T07:03:07.923Z,4.70
2023-04-02T07:05:35.043Z,4.70
2023-04-02T07:08:03.832Z,4.70
2023-04-02T07:10:30.830Z,4.80
2023-04-02T07:12:58.073Z,4.90
2023-04-02T07:15:25.498Z,4.90
2023-04-02T07:17:53.616Z,4.90
2023-04-02T07:20:27.862Z,4.90
2023-04-02T07:22:57.042Z,4.90
2023-04-02T07:25:26.478Z,5.00
2023-04-02T07:27:54.352Z,5.00
2023-04-02T07:30:21.405Z,5.10
2023-04-02T07:32:49.075Z,5.00
2023-04-02T07:35:16.229Z,5.10
2023-04-02T07:37:43.349Z,5.20
2023-04-02T07:40:16.840Z,5.20
2023-04-02T07:42:45.705Z,5.10
2023-04-02T07:45:12.980Z,5.10
2023-04-02T07:47:40.491Z,5.20
2023-04-02T07:50:08.766Z,5.20
2023-04-02T07:52:40.641Z,5.10
2023-04-02T07:55:09.870Z,5.20
2023-04-02T07:57:39.477Z,5.20
2023-04-02T08:00:09.906Z,5.20
2023-04-02T08:02:37.371Z,5.20
2023-04-02T08:05:04.865Z,5.30
2023-04-02T08:07:32.060Z,5.30
2023-04-02T08:09:58.891Z,5.40
2023-04-02T08:12:26.276Z,5.50
2023-04-02T08:14:53.151Z,5.70
2023-04-02T08:17:22.071Z,6.00
2023-04-02T08:19:55.167Z,6.10
2023-04-02T08:22:22.754Z,6.10
2023-04-02T08:24:49.667Z,6.10
2023-04-02T08:27:16.920Z,6.10
2023-04-02T08:29:43.813Z,6.00
2023-04-02T08:32:15.990Z,5.90
2023-04-02T08:34:44.629Z,5.80
2023-04-02T08:37:12.893Z,5.70
2023-04-02T08:39:40.095Z,5.60
2023-04-02T08:42:19.803Z,5.60
2023-04-02T08:44:55.971Z,5.50
2023-04-02T08:47:26.122Z,5.50
2023-04-02T08:49:58.902Z,5.50
2023-04-02T08:52:29.071Z,5.50
2023-04-02T08:54:58.119Z,5.50
2023-04-02T08:57:36.640Z,5.50
2023-04-02T09:00:10.890Z,5.50
2023-04-02T09:02:41.802Z,5.50
2023-04-02T09:05:18.814Z,5.50
2023-04-02T09:07:47.521Z,5.40
2023-04-02T09:10:16.431Z,5.40
2023-04-02T09:12:46.355Z,5.40
2023-04-02T09:15:22.655Z,5.40
2023-04-02T09:17:58.950Z,5.40
2023-04-02T09:20:29.286Z,5.50
2023-04-02T09:22:57.577Z,5.50
2023-04-02T09:25:27.184Z,5.60
2023-04-02T09:27:57.194Z,5.70
2023-04-02T09:30:32.798Z,5.80
2023-04-02T09:33:03.037Z,5.80
2023-04-02T09:35:33.265Z,5.90
2023-04-02T09:38:18.922Z,5.80
2023-04-02T09:40:56.938Z,5.80
2023-04-02T09:43:26.606Z,5.80
2023-04-02T09:46:00.360Z,5.80
2023-04-02T09:48:33.330Z,5.80
2023-04-02T09:51:17.296Z,5.90
2023-04-02T09:53:46.217Z,6.10
2023-04-02T09:56:16.604Z,6.10
2023-04-02T09:58:45.932Z,6.10
2023-04-02T10:01:34.580Z,6.10
2023-04-02T10:04:03.586Z,6.30
2023-04-02T10:06:33.764Z,6.40
2023-04-02T10:09:20.415Z,6.60
2023-04-02T10:11:47.448Z,6.60
2023-04-02T10:14:19.751Z,6.70
2023-04-02T10:16:51.232Z,6.80
2023-04-02T10:19:27.409Z,6.80
2023-04-02T10:21:57.518Z,6.80
2023-04-02T10:24:28.643Z,6.90
2023-04-02T10:27:09.744Z,6.90
2023-04-02T10:29:51.491Z,6.90
2023-04-02T10:32:21.375Z,7.10
2023-04-02T10:34:56.820Z,7.10
2023-04-02T10:38:07.517Z,7.00
2023-04-02T10:40:37.137Z,7.20
2023-04-02T10:43:30.833Z,7.30
2023-04-02T10:46:02.258Z,7.30
2023-04-02T10:48:36.967Z,7.40
2023-04-02T10:51:10.747Z,7.50
2023-04-02T10:53:46.930Z,7.50
2023-04-02T10:56:15.444Z,7.70
2023-04-02T10:58:49.841Z,8.00
2023-04-02T11:01:24.036Z,8.30
2023-04-02T11:03:58.615Z,8.30
2023-04-02T11:06:31.133Z,8.30
2023-04-02T11:09:02.422Z,8.30
2023-04-02T11:11:32.819Z,8.20
2023-04-02T11:14:02.919Z,8.20
2023-04-02T11:16:30.346Z,8.30
2023-04-02T11:19:22.521Z,8.50
2023-04-02T11:21:58.586Z,8.50
2023-04-02T11:24:37.566Z,8.50
2023-04-02T11:27:07.615Z,8.40
2023-04-02T11:29:37.352Z,8.30
2023-04-02T11:32:27.867Z,8.30
2023-04-02T11:35:07.209Z,8.40
2023-04-02T11:37:38.203Z,8.60
2023-04-02T11:40:45.350Z,8.80
2023-04-02T11:43:50.255Z,8.90
2023-04-02T11:46:45.123Z,9.10
2023-04-02T11:49:40.031Z,10.90
2023-04-02T11:52:22.632Z,13.10
2023-04-02T11:55:17.140Z,14.90
2023-04-02T11:57:55.735Z,16.30
2023-04-02T12:01:05.345Z,16.10
2023-04-02T12:04:01.313Z,15.20
2023-04-02T12:06:40.147Z,13.70
2023-04-02T12:09:15.281Z,12.60
2023-04-02T12:11:42.853Z,11.70
2023-04-02T12:14:41.794Z,10.70
2023-04-02T12:17:18.486Z,10.10
2023-04-02T12:19:51.997Z,10.00
2023-04-02T12:22:22.073Z,9.70
2023-04-02T12:24:50.343Z,9.60
2023-04-02T12:27:22.825Z,9.60
2023-04-02T12:29:52.274Z,12.00
2023-04-02T12:32:29.582Z,14.70
2023-04-02T12:34:58.116Z,17.10
2023-04-02T12:37:27.005Z,19.00
2023-04-02T12:39:56.961Z,18.70
2023-04-02T12:42:32.596Z,17.90
2023-04-02T12:45:02.081Z,16.40
2023-04-02T12:47:30.038Z,14.90
2023-04-02T12:49:58.655Z,13.80
2023-04-02T12:52:28.902Z,12.80
2023-04-02T12:54:58.896Z,11.80
2023-04-02T12:57:40.059Z,13.50
2023-04-02T13:00:36.423Z,14.40
2023-04-02T13:03:21.768Z,14.00
2023-04-02T13:05:53.386Z,12.90
2023-04-02T13:08:24.644Z,12.10
2023-04-02T13:10:57.612Z,11.50
2023-04-02T13:13:30.332Z,11.90
2023-04-02T13:16:08.193Z,11.90
2023-04-02T13:18:38.280Z,11.80
2023-04-02T13:21:06.745Z,11.60
2023-04-02T13:23:36.971Z,11.00
2023-04-02T13:26:16.171Z,10.70
2023-04-02T13:28:44.638Z,12.60
2023-04-02T13:31:16.855Z,13.90
2023-04-02T13:33:44.100Z,13.30
2023-04-02T13:36:14.252Z,12.40
2023-04-02T13:38:41.720Z,11.30
2023-04-02T13:41:17.254Z,10.70
2023-04-02T13:43:44.112Z,10.70
2023-04-02T13:46:19.585Z,12.30
2023-04-02T13:48:47.218Z,14.80
2023-04-02T13:51:16.953Z,16.90
2023-04-02T13:53:45.878Z,16.70
2023-04-02T13:56:12.849Z,15.30
2023-04-02T13:58:40.118Z,13.90
2023-04-02T14:01:07.603Z,14.00
2023-04-02T14:03:36.944Z,14.50
2023-04-02T14:06:08.600Z,14.30
2023-04-02T14:08:46.340Z,13.50
2023-04-02T14:11:31.771Z,12.50
2023-04-02T14:14:28.123Z,13.00
2023-04-02T14:17:06.972Z,14.50
2023-04-02T14:19:52.083Z,16.60
2023-04-02T14:22:29.096Z,17.40
2023-04-02T14:25:06.161Z,16.30
2023-04-02T14:27:41.372Z,14.50
2023-04-02T14:30:16.293Z,13.30
2023-04-02T14:32:51.680Z,12.10
2023-04-02T14:35:27.296Z,12.60
2023-04-02T14:38:06.516Z,14.00
2023-04-02T14:40:39.656Z,15.50
2023-04-02T14:43:11.971Z,16.50
2023-04-02T14:45:50.290Z,17.30
2023-04-02T14:48:36.358Z,18.20
2023-04-02T14:51:10.094Z,16.70
2023-04-02T14:53:48.769Z,15.00
2023-04-02T14:56:17.752Z,13.70
2023-04-02T14:58:48.588Z,13.30
2023-04-02T15:01:20.661Z,13.40
2023-04-02T15:03:54.295Z,14.40
2023-04-02T15:06:27.217Z,14.40
2023-04-02T15:09:09.361Z,13.80
2023-04-02T15:11:39.236Z,12.80
2023-04-02T15:14:13.435Z,11.80
2023-04-02T15:16:40.474Z,11.10
2023-04-02T15:19:13.038Z,10.70
2023-04-02T15:21:59.517Z,10.30
2023-04-02T15:24:36.660Z,10.10
2023-04-02T15:27:24.390Z,9.90
2023-04-02T15:29:58.187Z,9.90
2023-04-02T15:32:35.996Z,9.80
2023-04-02T15:35:20.382Z,10.00
2023-04-02T15:37:59.966Z,10.00
2023-04-02T15:40:46.339Z,10.10
2023-04-02T15:43:20.296Z,9.90
2023-04-02T15:45:54.880Z,9.60
2023-04-02T15:48:44.962Z,9.50
2023-04-02T15:51:25.841Z,9.60
2023-04-02T15:54:03.490Z,9.80
2023-04-02T15:56:40.653Z,10.00
2023-04-02T15:59:34.159Z,10.40
2023-04-02T16:02:21.721Z,10.70
2023-04-02T16:04:57.336Z,10.40
2023-04-02T16:07:47.746Z,10.10
2023-04-02T16:10:41.074Z,9.70
2023-04-02T16:13:16.889Z,9.50
2023-04-02T16:15:49.886Z,9.50
2023-04-02T16:18:27.345Z,9.70
2023-04-02T16:20:57.113Z,10.00
2023-04-02T16:23:31.527Z,10.20
2023-04-02T16:26:08.077Z,10.10
2023-04-02T16:28:43.125Z,9.90
2023-04-02T16:31:16.690Z,9.70
2023-04-02T16:33:53.496Z,9.50
2023-04-02T16:36:30.798Z,9.30
2023-04-02T16:39:03.418Z,9.30
2023-04-02T16:41:43.622Z,9.20
2023-04-02T16:44:22.144Z,9.10
2023-04-02T16:47:01.827Z,8.90
2023-04-02T16:49:38.355Z,8.80
2023-04-02T16:52:24.868Z,8.50
2023-04-02T16:55:04.996Z,8.40
2023-04-02T16:57:41.375Z,8.30
2023-04-02T17:00:18.167Z,8.30
2023-04-02T17:02:57.918Z,8.20
2023-04-02T17:05:32.473Z,8.30
2023-04-02T17:08:11.855Z,8.20
2023-04-02T17:10:50.024Z,8.10
2023-04-02T17:13:27.263Z,8.10
2023-04-02T17:16:02.654Z,8.00
2023-04-02T17:18:31.343Z,8.00
2023-04-02T17:21:03.429Z,8.00
2023-04-02T17:23:32.436Z,7.90
2023-04-02T17:26:06.476Z,7.80
2023-04-02T17:28:38.696Z,7.70
2023-04-02T17:31:13.148Z,7.70
2023-04-02T17:33:40.413Z,7.70
2023-04-02T17:36:27.218Z,7.70
2023-04-02T17:39:06.654Z,7.60
2023-04-02T17:41:40.613Z,7.60
2023-04-02T17:44:45.342Z,7.60
2023-04-02T17:47:19.752Z,7.60
2023-04-02T17:49:54.915Z,7.50
2023-04-02T17:52:28.543Z,7.50
2023-04-02T17:55:09.507Z,7.50
2023-04-02T17:57:49.569Z,7.50
2023-04-02T18:00:25.455Z,7.40
2023-04-02T18:03:10.763Z,7.30
2023-04-02T18:05:45.011Z,7.10
2023-04-02T18:08:22.639Z,7.00
2023-04-02T18:11:01.940Z,6.90
2023-04-02T18:13:35.669Z,6.80
2023-04-02T18:16:18.383Z,6.70
2023-04-02T18:19:14.199Z,6.70
2023-04-02T18:21:49.835Z,6.60
2023-04-02T18:24:41.217Z,6.60
2023-04-02T18:27:22.467Z,6.60
2023-04-02T18:29:55.661Z,6.50
2023-04-02T18:32:58.857Z,6.50
2023-04-02T18:35:30.228Z,6.40
2023-04-02T18:38:13.804Z,6.30
2023-04-02T18:40:52.706Z,6.30
2023-04-02T18:43:28.974Z,6.20
2023-04-02T18:46:05.585Z,6.10
2023-04-02T18:48:42.508Z,6.10
2023-04-02T18:51:16.807Z,6.10
2023-04-02T18:53:44.359Z,6.00
2023-04-02T18:56:14.423Z,5.90
2023-04-02T18:58:47.037Z,5.90
2023-04-02T19:01:18.731Z,5.80
2023-04-02T19:03:51.188Z,5.80
2023-04-02T19:06:23.402Z,5.80
2023-04-02T19:08:54.887Z,5.80
2023-04-02T19:11:29.763Z,5.70
2023-04-02T19:14:00.168Z,5.60
2023-04-02T19:17:00.293Z,5.60
2023-04-02T19:19:31.124Z,5.50
2023-04-02T19:22:16.876Z,5.50
2023-04-02T19:25:05.000Z,5.50
2023-04-02T19:27:41.641Z,5.40
2023-04-02T19:30:34.156Z,5.40
2023-04-02T19:33:07.432Z,5.30
2023-04-02T19:35:41.907Z,5.30
2023-04-02T19:38:22.115Z,5.30
2023-04-02T19:40:53.786Z,5.20
2023-04-02T19:43:21.219Z,5.20
2023-04-02T19:45:49.415Z,5.10
2023-04-02T19:48:20.326Z,5.10
2023-04-02T19:50:49.478Z,5.00
2023-04-02T19:53:17.287Z,5.00
2023-04-02T19:55:45.969Z,4.90
2023-04-02T19:58:27.759Z,4.90
2023-04-02T20:00:55.106Z,4.90
2023-04-02T20:03:23.088Z,4.90
2023-04-02T20:05:51.477Z,4.80
2023-04-02T20:08:19.031Z,4.80
2023-04-02T20:10:46.404Z,4.80
2023-04-02T20:13:13.972Z,4.70
2023-04-02T20:15:41.482Z,4.70
2023-04-02T20:18:10.434Z,4.60
2023-04-02T20:20:39.049Z,4.60
2023-04-02T20:23:07.594Z,4.50
2023-04-02T20:25:34.513Z,4.50
2023-04-02T20:28:03.730Z,4.40
2023-04-02T20:30:32.340Z,4.50
2023-04-02T20:33:00.137Z,4.40
2023-04-02T20:35:27.501Z,4.50
2023-04-02T20:37:54.835Z,4.40
2023-04-02T20:40:25.062Z,4.40
2023-04-02T20:42:53.199Z,4.40
2023-04-02T20:45:20.447Z,4.40
2023-04-02T20:47:47.501Z,4.30
2023-04-02T20:50:14.741Z,4.20
2023-04-02T20:52:41.705Z,4.20
2023-04-02T20:55:09.900Z,4.20
2023-04-02T20:57:38.753Z,4.10
2023-04-02T21:00:08.451Z,4.20
2023-04-02T21:02:35.448Z,4.10
2023-04-02T21:05:02.491Z,4.10
2023-04-02T21:07:29.467Z,4.10
2023-04-02T21:09:56.939Z,4.10
2023-04-02T21:12:24.998Z,4.10
2023-04-02T21:14:59.678Z,4.00
2023-04-02T21:17:28.246Z,4.00
2023-04-02T21:19:55.663Z,4.10
2023-04-02T21:22:22.641Z,4.00
2023-04-02T21:24:49.951Z,4.00
2023-04-02T21:27:17.287Z,4.00
2023-04-02T21:29:44.569Z,3.90
2023-04-02T21:32:21.202Z,3.90
2023-04-02T21:34:48.522Z,3.80
2023-04-02T21:37:15.788Z,3.80
2023-04-02T21:39:42.731Z,3.80
2023-04-02T21:42:11.126Z,3.80
2023-04-02T21:44:38.141Z,3.70
2023-04-02T21:47:05.363Z,3.70
2023-04-02T21:49:33.887Z,3.60
2023-04-02T21:52:00.824Z,3.60
2023-04-02T21:54:28.070Z,3.50
2023-04-02T21:56:55.126Z,3.50
2023-04-02T21:59:22.508Z,3.50
2023-04-02T22:01:52.064Z,3.50
2023-04-02T22:04:21.683Z,3.50
2023-04-02T22:06:52.095Z,3.40
2023-04-02T22:09:21.905Z,3.40
2023-04-02T22:11:50.916Z,3.40
2023-04-02T22:14:18.290Z,3.40
2023-04-02T22:16:45.460Z,3.40
2023-04-02T22:19:15.137Z,3.30
2023-04-02T22:21:42.829Z,3.30
2023-04-02T22:24:14.050Z,3.30
2023-04-02T22:26:41.310Z,3.30
2023-04-02T22:29:08.952Z,3.30
2023-04-02T22:31:36.668Z,3.20
2023-04-02T22:34:05.569Z,3.20
2023-04-02T22:36:32.859Z,3.10
2023-04-02T22:39:00.945Z,3.10
2023-04-02T22:41:31.923Z,3.20
2023-04-02T22:44:01.226Z,3.30
2023-04-02T22:46:29.824Z,3.40
2023-04-02T22:48:56.896Z,3.40
2023-04-02T22:51:25.725Z,3.50
2023-04-02T22:53:54.041Z,3.50
2023-04-02T22:56:23.306Z,3.50
2023-04-02T22:58:51.509Z,3.40
2023-04-02T23:01:21.607Z,3.40
2023-04-02T23:03:49.132Z,3.30
2023-04-02T23:06:17.932Z,3.20
2023-04-02T23:08:46.264Z,3.10
2023-04-02T23:11:15.903Z,3.10
2023-04-02T23:13:43.695Z,3.00
2023-04-02T23:16:13.393Z,2.90
2023-04-02T23:18:41.773Z,2.90
2023-04-02T23:21:09.719Z,2.90
2023-04-02T23:23:36.691Z,2.80
2023-04-02T23:26:06.304Z,2.80
2023-04-02T23:28:33.761Z,2.80
2023-04-02T23:31:02.995Z,2.80
2023-04-02T23:33:31.560Z,2.80
2023-04-02T23:35:58.736Z,2.70
2023-04-02T23:38:26.399Z,2.70
2023-04-02T23:40:53.551Z,2.60
2023-04-02T23:43:21.058Z,2.60
2023-04-02T23:45:49.041Z,2.60
2023-04-02T23:48:17.059Z,2.50
2023-04-02T23:50:46.222Z,2.50
2023-04-02T23:53:14.253Z,2.50
2023-04-02T23:55:41.472Z,2.50
2023-04-02T23:58:08.741Z,2.40
